createdAt,value
2022-09-21T00:01:39.348Z,11.20
2022-09-21T00:04:08.730Z,11.20
2022-09-21T00:06:37.356Z,11.30
2022-09-21T00:09:08.348Z,11.10
2022-09-21T00:11:38.758Z,11.20
2022-09-21T00:14:10.798Z,11.10
2022-09-21T00:16:40.390Z,11.10
2022-09-21T00:19:10.418Z,11.00
2022-09-21T00:21:39.377Z,11.00
2022-09-21T00:24:08.096Z,10.90
2022-09-21T00:26:36.377Z,10.80
2022-09-21T00:29:05.388Z,10.80
2022-09-21T00:31:34.247Z,10.80
2022-09-21T00:34:03.822Z,10.80
2022-09-21T00:36:33.133Z,10.80
2022-09-21T00:39:03.251Z,10.90
2022-09-21T00:41:34.155Z,10.80
2022-09-21T00:44:24.676Z,10.70
2022-09-21T00:46:54.623Z,10.70
2022-09-21T00:49:23.898Z,10.70
2022-09-21T00:51:54.242Z,10.70
2022-09-21T00:54:27.059Z,10.70
2022-09-21T00:57:01.289Z,10.70
2022-09-21T00:59:30.586Z,10.70
2022-09-21T01:02:00.283Z,10.70
2022-09-21T01:04:29.567Z,10.70
2022-09-21T01:07:02.344Z,10.50
2022-09-21T01:09:30.242Z,10.60
2022-09-21T01:12:06.243Z,10.60
2022-09-21T01:14:54.250Z,10.60
2022-09-21T01:17:37.888Z,10.60
2022-09-21T01:20:48.748Z,10.60
2022-09-21T01:23:46.874Z,10.60
2022-09-21T01:26:23.926Z,10.60
2022-09-21T01:29:15.004Z,10.60
2022-09-21T01:31:48.761Z,10.60
2022-09-21T01:34:30.671Z,10.60
2022-09-21T01:37:03.686Z,10.50
2022-09-21T01:39:34.970Z,10.50
2022-09-21T01:42:04.859Z,10.50
2022-09-21T01:44:37.060Z,10.50
2022-09-21T01:47:09.911Z,10.50
2022-09-21T01:49:42.864Z,10.40
2022-09-21T01:52:18.771Z,10.40
2022-09-21T01:54:52.217Z,10.40
2022-09-21T01:57:27.769Z,10.30
2022-09-21T01:59:58.805Z,10.40
2022-09-21T02:02:35.991Z,10.20
2022-09-21T02:05:05.958Z,10.30
2022-09-21T02:07:34.701Z,10.20
2022-09-21T02:10:03.586Z,10.30
2022-09-21T02:12:33.177Z,10.30
2022-09-21T02:15:03.883Z,10.30
2022-09-21T02:17:46.867Z,10.30
2022-09-21T02:20:21.294Z,10.20
2022-09-21T02:23:03.391Z,10.30
2022-09-21T02:25:40.206Z,10.20
2022-09-21T02:28:12.985Z,10.20
2022-09-21T02:30:47.781Z,10.20
2022-09-21T02:33:24.675Z,10.10
2022-09-21T02:35:57.299Z,10.00
2022-09-21T02:38:35.343Z,9.70
2022-09-21T02:41:08.665Z,9.70
2022-09-21T02:43:41.526Z,9.70
2022-09-21T02:46:16.168Z,9.70
2022-09-21T02:48:49.404Z,9.60
2022-09-21T02:51:20.781Z,9.60
2022-09-21T02:53:52.666Z,9.70
2022-09-21T02:56:21.792Z,9.60
2022-09-21T02:58:54.325Z,9.70
2022-09-21T03:01:26.051Z,9.70
2022-09-21T03:03:55.135Z,9.70
2022-09-21T03:06:23.245Z,9.80
2022-09-21T03:08:53.681Z,9.70
2022-09-21T03:11:22.098Z,9.80
2022-09-21T03:13:50.331Z,9.70
2022-09-21T03:16:18.805Z,9.80
2022-09-21T03:18:49.214Z,9.80
2022-09-21T03:21:17.218Z,9.90
2022-09-21T03:23:45.109Z,9.90
2022-09-21T03:26:13.275Z,9.80
2022-09-21T03:28:41.319Z,9.80
2022-09-21T03:31:09.796Z,9.70
2022-09-21T03:33:37.811Z,9.70
2022-09-21T03:36:07.727Z,9.80
2022-09-21T03:38:36.374Z,9.90
2022-09-21T03:41:04.891Z,9.90
2022-09-21T03:43:32.841Z,9.90
2022-09-21T03:46:00.982Z,9.90
2022-09-21T03:48:28.801Z,9.90
2022-09-21T03:50:56.964Z,9.90
2022-09-21T03:53:26.147Z,10.00
2022-09-21T03:55:54.481Z,9.90
2022-09-21T03:58:22.327Z,10.00
2022-09-21T04:00:50.486Z,10.00
2022-09-21T04:03:18.637Z,9.90
2022-09-21T04:05:46.467Z,9.90
2022-09-21T04:08:14.478Z,9.90
2022-09-21T04:10:44.165Z,9.80
2022-09-21T04:13:13.577Z,9.80
2022-09-21T04:15:41.641Z,9.80
2022-09-21T04:18:30.287Z,9.80
2022-09-21T04:20:58.105Z,9.80
2022-09-21T04:23:26.274Z,9.70
2022-09-21T04:25:58.205Z,9.80
2022-09-21T04:28:26.184Z,9.80
2022-09-21T04:30:54.424Z,9.80
2022-09-21T04:33:24.222Z,9.60
2022-09-21T04:35:56.775Z,9.60
2022-09-21T04:38:24.781Z,9.60
2022-09-21T04:40:58.181Z,9.60
2022-09-21T04:43:26.703Z,9.60
2022-09-21T04:45:54.734Z,9.60
2022-09-21T04:48:23.021Z,9.60
2022-09-21T04:50:51.518Z,9.60
2022-09-21T04:53:19.926Z,9.60
2022-09-21T04:55:48.482Z,9.60
2022-09-21T04:58:21.279Z,9.60
2022-09-21T05:00:52.401Z,9.50
2022-09-21T05:03:20.936Z,9.50
2022-09-21T05:05:49.764Z,9.40
2022-09-21T05:08:18.306Z,9.50
2022-09-21T05:10:45.417Z,9.50
2022-09-21T05:13:17.819Z,9.50
2022-09-21T05:15:49.283Z,9.40
2022-09-21T05:18:35.351Z,9.40
2022-09-21T05:21:04.997Z,9.40
2022-09-21T05:23:33.671Z,9.40
2022-09-21T05:26:02.003Z,9.40
2022-09-21T05:28:30.821Z,9.30
2022-09-21T05:31:17.571Z,9.20
2022-09-21T05:33:51.800Z,9.20
2022-09-21T05:36:38.572Z,9.20
2022-09-21T05:39:07.377Z,9.30
2022-09-21T05:41:36.567Z,9.30
2022-09-21T05:44:05.126Z,9.30
2022-09-21T05:46:40.397Z,9.30
2022-09-21T05:49:18.861Z,9.20
2022-09-21T05:51:56.578Z,9.10
2022-09-21T05:54:38.256Z,9.10
2022-09-21T05:57:14.894Z,9.10
2022-09-21T05:59:57.628Z,9.10
2022-09-21T06:02:45.831Z,9.20
2022-09-21T06:05:15.730Z,9.20
2022-09-21T06:07:43.624Z,9.20
2022-09-21T06:10:13.184Z,9.30
2022-09-21T06:12:41.407Z,9.20
2022-09-21T06:15:13.910Z,9.10
2022-09-21T06:17:44.350Z,9.30
2022-09-21T06:20:12.367Z,9.30
2022-09-21T06:22:40.373Z,9.40
2022-09-21T06:25:09.371Z,9.50
2022-09-21T06:27:37.205Z,9.60
2022-09-21T06:30:05.843Z,9.50
2022-09-21T06:32:33.709Z,9.40
2022-09-21T06:35:03.153Z,9.50
2022-09-21T06:37:31.571Z,9.60
2022-09-21T06:39:59.547Z,9.70
2022-09-21T06:42:28.559Z,9.80
2022-09-21T06:44:56.700Z,9.90
2022-09-21T06:47:24.705Z,9.90
2022-09-21T06:49:54.092Z,10.10
2022-09-21T06:52:23.407Z,10.10
2022-09-21T06:54:51.502Z,10.30
2022-09-21T06:57:19.426Z,10.30
2022-09-21T06:59:47.520Z,10.50
2022-09-21T07:02:15.407Z,10.60
2022-09-21T07:04:44.256Z,10.70
2022-09-21T07:07:12.324Z,10.80
2022-09-21T07:12:32.379Z,11.20
2022-09-21T07:15:00.339Z,11.30
2022-09-21T07:17:40.081Z,11.40
2022-09-21T07:20:09.329Z,11.50
2022-09-21T07:22:38.221Z,11.40
2022-09-21T07:25:08.717Z,11.50
2022-09-21T07:27:36.903Z,11.70
2022-09-21T07:30:06.206Z,11.70
2022-09-21T07:32:34.239Z,11.90
2022-09-21T07:35:02.406Z,12.10
2022-09-21T07:37:32.368Z,12.20
2022-09-21T07:40:02.886Z,12.40
2022-09-21T07:42:32.290Z,12.60
2022-09-21T07:45:04.150Z,12.90
2022-09-21T07:47:32.578Z,12.90
2022-09-21T07:50:00.652Z,12.90
2022-09-21T07:52:28.965Z,12.90
2022-09-21T07:54:59.149Z,13.10
2022-09-21T07:57:44.933Z,13.10
2022-09-21T08:00:15.773Z,13.30
2022-09-21T08:02:47.689Z,13.50
2022-09-21T08:05:16.205Z,13.70
2022-09-21T08:07:44.518Z,13.90
2022-09-21T08:10:13.234Z,14.00
2022-09-21T08:12:41.391Z,14.10
2022-09-21T08:15:30.588Z,14.20
2022-09-21T08:18:07.260Z,14.40
2022-09-21T08:20:35.841Z,14.50
2022-09-21T08:23:04.197Z,14.60
2022-09-21T08:25:32.647Z,14.80
2022-09-21T08:28:03.162Z,14.90
2022-09-21T08:30:34.225Z,15.00
2022-09-21T08:33:03.866Z,15.10
2022-09-21T08:35:32.145Z,15.10
2022-09-21T08:38:01.471Z,15.20
2022-09-21T08:40:29.752Z,15.30
2022-09-21T08:43:03.300Z,15.40
2022-09-21T08:45:36.184Z,15.50
2022-09-21T08:48:11.666Z,15.60
2022-09-21T08:50:43.804Z,15.60
2022-09-21T08:53:17.168Z,15.70
2022-09-21T08:55:45.658Z,15.80
2022-09-21T08:58:23.489Z,15.90
2022-09-21T09:01:02.482Z,16.00
2022-09-21T09:03:52.706Z,16.10
2022-09-21T09:06:26.933Z,16.20
2022-09-21T09:09:28.259Z,16.30
2022-09-21T09:12:11.354Z,16.40
2022-09-21T09:14:53.870Z,16.50
2022-09-21T09:17:45.806Z,16.50
2022-09-21T09:20:21.253Z,16.60
2022-09-21T09:22:55.983Z,16.70
2022-09-21T09:25:26.894Z,16.80
2022-09-21T09:28:00.074Z,16.80
2022-09-21T09:30:33.048Z,16.70
2022-09-21T09:33:10.049Z,16.50
2022-09-21T09:35:46.750Z,16.50
2022-09-21T09:38:23.760Z,16.60
2022-09-21T09:41:03.625Z,16.60
2022-09-21T09:43:50.755Z,16.60
2022-09-21T09:46:30.558Z,16.70
2022-09-21T09:49:19.814Z,17.00
2022-09-21T09:51:50.154Z,17.30
2022-09-21T09:54:26.270Z,17.40
2022-09-21T09:56:55.354Z,17.20
2022-09-21T09:59:35.871Z,17.20
2022-09-21T10:02:06.910Z,17.30
2022-09-21T10:04:36.386Z,17.50
2022-09-21T10:07:06.226Z,17.60
2022-09-21T10:09:35.512Z,17.70
2022-09-21T10:12:21.855Z,17.80
2022-09-21T10:14:52.447Z,17.80
2022-09-21T10:17:21.355Z,17.80
2022-09-21T10:19:49.700Z,17.90
2022-09-21T10:22:23.045Z,17.90
2022-09-21T10:24:53.510Z,18.00
2022-09-21T10:27:28.230Z,18.10
2022-09-21T10:29:57.587Z,18.20
2022-09-21T10:32:27.288Z,18.30
2022-09-21T10:35:18.351Z,18.40
2022-09-21T10:37:53.867Z,18.50
2022-09-21T10:40:27.769Z,18.60
2022-09-21T10:42:58.723Z,18.60
2022-09-21T10:45:28.675Z,18.70
2022-09-21T10:48:00.717Z,18.80
2022-09-21T10:50:31.348Z,18.80
2022-09-21T10:53:05.233Z,18.80
2022-09-21T10:55:33.763Z,18.80
2022-09-21T10:58:02.216Z,18.60
2022-09-21T11:00:36.722Z,18.60
2022-09-21T11:03:23.067Z,18.60
2022-09-21T11:06:06.501Z,18.60
2022-09-21T11:08:43.758Z,18.70
2022-09-21T11:11:43.904Z,18.80
2022-09-21T11:14:33.397Z,18.90
2022-09-21T11:17:08.847Z,18.90
2022-09-21T11:19:59.090Z,19.00
2022-09-21T11:22:56.714Z,19.00
2022-09-21T11:25:40.385Z,19.00
2022-09-21T11:28:24.335Z,18.90
2022-09-21T11:31:11.960Z,18.90
2022-09-21T11:33:53.762Z,18.90
2022-09-21T11:36:30.890Z,18.90
2022-09-21T11:39:05.576Z,18.80
2022-09-21T11:42:03.281Z,18.50
2022-09-21T11:44:50.557Z,18.40
2022-09-21T11:47:34.992Z,18.20
2022-09-21T11:50:30.620Z,18.30
2022-09-21T11:53:22.627Z,18.10
2022-09-21T11:56:06.784Z,17.70
2022-09-21T11:58:41.051Z,17.60
2022-09-21T12:01:20.346Z,17.50
2022-09-21T12:04:03.526Z,17.50
2022-09-21T12:06:52.067Z,17.60
2022-09-21T12:09:45.141Z,17.60
2022-09-21T12:12:19.029Z,17.70
2022-09-21T12:15:04.040Z,17.80
2022-09-21T12:17:51.201Z,17.70
2022-09-21T12:20:30.747Z,17.60
2022-09-21T12:23:19.712Z,17.70
2022-09-21T12:25:53.916Z,17.70
2022-09-21T12:28:27.103Z,17.60
2022-09-21T12:31:01.135Z,17.60
2022-09-21T12:33:37.080Z,17.60
2022-09-21T12:36:14.959Z,17.40
2022-09-21T12:38:57.451Z,17.30
2022-09-21T12:41:35.156Z,17.30
2022-09-21T12:44:13.521Z,17.30
2022-09-21T12:46:52.427Z,17.30
2022-09-21T12:49:31.692Z,17.30
2022-09-21T12:52:09.362Z,17.40
2022-09-21T12:54:45.347Z,17.30
2022-09-21T12:57:49.087Z,17.20
2022-09-21T13:00:19.929Z,17.10
2022-09-21T13:02:55.875Z,17.10
2022-09-21T13:05:38.636Z,17.20
2022-09-21T13:08:12.345Z,17.20
2022-09-21T13:10:51.761Z,17.20
2022-09-21T13:13:35.975Z,17.30
2022-09-21T13:16:10.167Z,17.30
2022-09-21T13:18:41.429Z,17.30
2022-09-21T13:21:18.037Z,17.20
2022-09-21T13:23:55.872Z,17.20
2022-09-21T13:26:36.037Z,17.20
2022-09-21T13:29:26.502Z,17.10
2022-09-21T13:31:58.856Z,17.10
2022-09-21T13:34:35.808Z,17.00
2022-09-21T13:37:28.017Z,17.00
2022-09-21T13:40:39.047Z,17.00
2022-09-21T13:43:58.488Z,17.10
2022-09-21T13:46:51.795Z,17.20
2022-09-21T13:49:32.237Z,17.30
2022-09-21T13:52:07.384Z,17.30
2022-09-21T13:54:39.238Z,17.30
2022-09-21T13:57:19.433Z,17.30
2022-09-21T13:59:50.544Z,17.50
2022-09-21T14:02:32.558Z,17.50
2022-09-21T14:05:08.496Z,17.40
2022-09-21T14:10:29.724Z,17.50
2022-09-21T14:13:21.477Z,17.50
2022-09-21T14:15:51.267Z,17.50
2022-09-21T14:18:39.823Z,17.50
2022-09-21T14:21:29.917Z,17.40
2022-09-21T14:24:53.122Z,17.40
2022-09-21T14:27:28.564Z,17.40
2022-09-21T14:30:17.828Z,17.40
2022-09-21T14:32:53.199Z,17.40
2022-09-21T14:35:31.547Z,17.30
2022-09-21T14:38:05.428Z,17.30
2022-09-21T14:40:51.359Z,17.30
2022-09-21T14:43:22.949Z,17.30
2022-09-21T14:46:10.259Z,17.20
2022-09-21T14:48:51.713Z,17.20
2022-09-21T14:51:26.268Z,17.20
2022-09-21T14:54:31.678Z,17.20
2022-09-21T14:57:40.336Z,17.10
2022-09-21T15:00:26.630Z,17.00
2022-09-21T15:03:11.226Z,17.00
2022-09-21T15:05:43.140Z,17.00
2022-09-21T15:08:47.424Z,16.90
2022-09-21T15:11:26.897Z,16.80
2022-09-21T15:14:18.126Z,16.80
2022-09-21T15:16:49.202Z,16.70
2022-09-21T15:19:24.108Z,16.70
2022-09-21T15:21:53.844Z,16.60
2022-09-21T15:24:35.832Z,16.60
2022-09-21T15:27:11.619Z,16.60
2022-09-21T15:29:49.264Z,16.50
2022-09-21T15:32:28.352Z,16.50
2022-09-21T15:35:02.464Z,16.50
2022-09-21T15:37:39.671Z,16.50
2022-09-21T15:40:20.953Z,16.50
2022-09-21T15:43:04.605Z,16.50
2022-09-21T15:45:46.927Z,16.50
2022-09-21T15:48:15.033Z,16.50
2022-09-21T15:50:46.310Z,16.40
2022-09-21T15:53:20.133Z,16.30
2022-09-21T15:55:49.238Z,16.40
2022-09-21T15:58:26.844Z,16.40
2022-09-21T16:00:59.883Z,16.40
2022-09-21T16:03:28.611Z,16.40
2022-09-21T16:06:00.656Z,16.40
2022-09-21T16:08:33.884Z,16.40
2022-09-21T16:11:17.840Z,16.40
2022-09-21T16:14:04.894Z,16.40
2022-09-21T16:16:34.272Z,16.40
2022-09-21T16:19:02.280Z,16.40
2022-09-21T16:21:33.947Z,16.40
2022-09-21T16:24:12.751Z,16.30
2022-09-21T16:26:42.663Z,16.30
2022-09-21T16:29:41.544Z,16.30
2022-09-21T16:32:32.014Z,16.30
2022-09-21T16:35:28.895Z,16.30
2022-09-21T16:37:58.952Z,16.30
2022-09-21T16:40:27.922Z,16.30
2022-09-21T16:42:58.064Z,16.30
2022-09-21T16:45:34.785Z,16.20
2022-09-21T16:48:08.428Z,16.30
2022-09-21T16:50:36.642Z,16.30
2022-09-21T16:53:04.968Z,16.30
2022-09-21T16:55:32.964Z,16.30
2022-09-21T16:58:07.664Z,16.30
2022-09-21T17:00:42.148Z,16.20
2022-09-21T17:03:16.938Z,16.20
2022-09-21T17:05:46.140Z,16.10
2022-09-21T17:08:21.988Z,16.10
2022-09-21T17:10:49.981Z,16.10
2022-09-21T17:13:20.641Z,16.10
2022-09-21T17:15:50.492Z,16.00
2022-09-21T17:18:48.789Z,16.00
2022-09-21T17:21:19.111Z,16.00
2022-09-21T17:23:47.500Z,15.90
2022-09-21T17:26:21.155Z,15.90
2022-09-21T17:28:51.111Z,15.80
2022-09-21T17:31:23.337Z,15.80
2022-09-21T17:33:54.256Z,15.70
2022-09-21T17:36:23.088Z,15.70
2022-09-21T17:38:52.899Z,15.70
2022-09-21T17:41:26.422Z,15.70
2022-09-21T17:44:08.866Z,15.60
2022-09-21T17:46:47.959Z,15.50
2022-09-21T17:49:20.710Z,15.50
2022-09-21T17:52:06.453Z,15.40
2022-09-21T17:54:36.278Z,15.40
2022-09-21T17:57:15.573Z,15.30
2022-09-21T17:59:55.296Z,15.30
2022-09-21T18:02:27.381Z,15.30
2022-09-21T18:05:04.543Z,15.20
2022-09-21T18:07:33.549Z,15.10
2022-09-21T18:10:04.107Z,15.10
2022-09-21T18:13:02.038Z,15.00
2022-09-21T18:15:41.710Z,15.00
2022-09-21T18:18:44.761Z,15.00
2022-09-21T18:21:21.401Z,14.90
2022-09-21T18:24:30.833Z,14.90
2022-09-21T18:27:00.813Z,14.80
2022-09-21T18:29:41.189Z,14.70
2022-09-21T18:32:43.842Z,14.70
2022-09-21T18:35:26.571Z,14.70
2022-09-21T18:38:28.223Z,14.70
2022-09-21T18:41:12.946Z,14.60
2022-09-21T18:43:57.876Z,14.60
2022-09-21T18:46:31.486Z,14.50
2022-09-21T18:49:07.155Z,14.50
2022-09-21T18:51:43.443Z,14.40
2022-09-21T18:54:21.956Z,14.40
2022-09-21T18:56:52.631Z,14.30
2022-09-21T18:59:23.437Z,14.30
2022-09-21T19:01:54.000Z,14.30
2022-09-21T19:04:22.608Z,14.20
2022-09-21T19:06:58.159Z,14.20
2022-09-21T19:09:39.338Z,14.10
2022-09-21T19:12:19.239Z,14.10
2022-09-21T19:14:59.297Z,14.00
2022-09-21T19:17:44.490Z,14.00
2022-09-21T19:20:42.784Z,14.00
2022-09-21T19:23:24.480Z,13.90
2022-09-21T19:26:00.768Z,13.90
2022-09-21T19:28:52.725Z,13.80
2022-09-21T19:31:21.603Z,13.70
2022-09-21T19:33:51.305Z,13.60
2022-09-21T19:36:20.823Z,13.60
2022-09-21T19:38:53.269Z,13.60
2022-09-21T19:41:41.025Z,13.60
2022-09-21T19:44:31.664Z,13.50
2022-09-21T19:47:07.774Z,13.50
2022-09-21T19:49:47.421Z,13.50
2022-09-21T19:52:19.187Z,13.50
2022-09-21T19:55:05.322Z,13.50
2022-09-21T19:57:52.703Z,13.40
2022-09-21T20:00:22.722Z,13.40
2022-09-21T20:03:04.067Z,13.50
2022-09-21T20:05:48.334Z,13.40
2022-09-21T20:08:24.112Z,13.40
2022-09-21T20:11:13.894Z,13.30
2022-09-21T20:13:59.912Z,13.30
2022-09-21T20:16:42.027Z,13.30
2022-09-21T20:19:38.215Z,13.30
2022-09-21T20:22:13.310Z,13.20
2022-09-21T20:24:50.856Z,13.10
2022-09-21T20:27:30.315Z,13.00
2022-09-21T20:30:00.180Z,13.00
2022-09-21T20:32:28.430Z,13.00
2022-09-21T20:34:57.530Z,13.00
2022-09-21T20:37:27.296Z,12.90
2022-09-21T20:39:55.887Z,12.90
2022-09-21T20:42:26.943Z,12.80
2022-09-21T20:44:55.695Z,12.70
2022-09-21T20:47:30.813Z,12.80
2022-09-21T20:50:00.872Z,12.70
2022-09-21T20:52:33.390Z,12.70
2022-09-21T20:55:01.829Z,12.80
2022-09-21T20:57:30.177Z,12.90
2022-09-21T20:59:58.508Z,12.80
2022-09-21T21:02:51.881Z,12.80
2022-09-21T21:05:23.631Z,12.70
2022-09-21T21:07:51.716Z,12.60
2022-09-21T21:10:20.011Z,12.60
2022-09-21T21:12:48.607Z,12.70
2022-09-21T21:15:19.641Z,12.70
2022-09-21T21:18:02.814Z,12.60
2022-09-21T21:20:31.079Z,12.60
2022-09-21T21:22:59.388Z,12.60
2022-09-21T21:25:29.034Z,12.50
2022-09-21T21:28:00.744Z,12.40
2022-09-21T21:30:29.224Z,12.40
2022-09-21T21:33:07.550Z,12.30
2022-09-21T21:35:36.390Z,12.40
2022-09-21T21:38:09.478Z,12.40
2022-09-21T21:40:39.545Z,12.40
2022-09-21T21:43:07.964Z,12.40
2022-09-21T21:45:42.706Z,12.40
2022-09-21T21:48:12.322Z,12.40
2022-09-21T21:50:40.666Z,12.40
2022-09-21T21:53:15.145Z,12.50
2022-09-21T21:55:47.708Z,12.40
2022-09-21T21:58:15.847Z,12.40
2022-09-21T22:00:47.352Z,12.40
2022-09-21T22:03:19.700Z,12.30
2022-09-21T22:05:49.039Z,12.30
2022-09-21T22:08:17.653Z,12.30
2022-09-21T22:10:52.181Z,12.20
2022-09-21T22:13:23.063Z,12.10
2022-09-21T22:15:51.362Z,12.20
2022-09-21T22:18:29.877Z,12.20
2022-09-21T22:21:02.634Z,12.20
2022-09-21T22:23:31.023Z,12.20
2022-09-21T22:26:07.619Z,12.20
2022-09-21T22:28:36.651Z,12.30
2022-09-21T22:31:11.125Z,12.10
2022-09-21T22:33:41.391Z,12.10
2022-09-21T22:36:11.743Z,12.00
2022-09-21T22:38:43.030Z,12.00
2022-09-21T22:41:13.435Z,12.10
2022-09-21T22:43:44.356Z,12.10
2022-09-21T22:46:13.277Z,12.10
2022-09-21T22:48:43.223Z,11.90
2022-09-21T22:51:12.875Z,11.90
2022-09-21T22:53:41.392Z,11.60
2022-09-21T22:56:12.034Z,11.60
2022-09-21T22:58:41.664Z,11.60
2022-09-21T23:01:13.074Z,11.50
2022-09-21T23:03:43.226Z,11.40
2022-09-21T23:06:21.387Z,11.30
2022-09-21T23:08:56.599Z,11.20
2022-09-21T23:11:28.716Z,11.20
2022-09-21T23:13:58.069Z,11.20
2022-09-21T23:16:27.692Z,11.10
2022-09-21T23:18:59.985Z,11.00
2022-09-21T23:21:31.121Z,11.00
2022-09-21T23:24:00.803Z,11.00
2022-09-21T23:26:33.141Z,11.00
2022-09-21T23:29:03.671Z,11.00
2022-09-21T23:31:35.268Z,11.10
2022-09-21T23:34:08.636Z,11.10
2022-09-21T23:36:39.953Z,11.20
2022-09-21T23:39:09.231Z,11.20
2022-09-21T23:41:37.915Z,11.20
2022-09-21T23:44:08.567Z,11.20
2022-09-21T23:46:41.085Z,11.20
2022-09-21T23:49:11.071Z,11.20
2022-09-21T23:51:39.868Z,11.20
2022-09-21T23:54:08.597Z,11.20
2022-09-21T23:56:37.312Z,11.10
2022-09-21T23:59:05.771Z,11.10
